createdAt,value
2022-12-31T00:02:22.222Z,73.00
2022-12-31T00:04:48.779Z,73.20
2022-12-31T00:07:15.225Z,73.30
2022-12-31T00:09:41.716Z,73.10
2022-12-31T00:12:08.191Z,73.20
2022-12-31T00:14:34.681Z,73.20
2022-12-31T00:17:01.180Z,73.40
2022-12-31T00:19:27.705Z,73.40
2022-12-31T00:21:54.177Z,73.50
2022-12-31T00:24:20.647Z,73.50
2022-12-31T00:26:47.123Z,73.40
2022-12-31T00:29:13.593Z,73.70
2022-12-31T00:31:40.073Z,73.80
2022-12-31T00:34:06.523Z,73.60
2022-12-31T00:36:32.999Z,73.90
2022-12-31T00:38:59.471Z,73.80
2022-12-31T00:41:25.950Z,73.80
2022-12-31T00:43:52.434Z,73.80
2022-12-31T00:46:18.976Z,73.80
2022-12-31T00:48:45.516Z,73.90
2022-12-31T00:51:11.995Z,73.90
2022-12-31T00:53:38.454Z,74.00
2022-12-31T00:56:04.924Z,73.80
2022-12-31T00:58:31.393Z,74.00
2022-12-31T01:00:57.936Z,74.80
2022-12-31T01:03:24.539Z,74.20
2022-12-31T01:05:51.091Z,74.20
2022-12-31T01:08:17.541Z,74.00
2022-12-31T01:10:44.035Z,74.10
2022-12-31T01:13:10.504Z,74.00
2022-12-31T01:15:37.023Z,74.00
2022-12-31T01:18:03.504Z,74.00
2022-12-31T01:20:30.021Z,73.90
2022-12-31T01:22:56.503Z,73.80
2022-12-31T01:25:22.990Z,73.90
2022-12-31T01:27:49.491Z,74.00
2022-12-31T01:30:15.960Z,73.70
2022-12-31T01:32:42.422Z,73.90
2022-12-31T01:35:08.909Z,73.90
2022-12-31T01:37:35.408Z,74.10
2022-12-31T01:40:01.885Z,73.90
2022-12-31T01:42:28.349Z,73.50
2022-12-31T01:44:54.836Z,73.80
2022-12-31T01:47:21.288Z,73.90
2022-12-31T01:49:47.755Z,73.80
2022-12-31T01:52:14.256Z,73.90
2022-12-31T01:54:40.763Z,73.70
2022-12-31T01:57:07.241Z,73.80
2022-12-31T01:59:33.715Z,74.00
2022-12-31T02:02:00.299Z,73.80
2022-12-31T02:04:26.846Z,73.90
2022-12-31T02:06:53.335Z,73.80
2022-12-31T02:09:19.797Z,74.10
2022-12-31T02:11:46.305Z,74.00
2022-12-31T02:14:12.789Z,74.00
2022-12-31T02:16:39.273Z,73.90
2022-12-31T02:19:05.746Z,73.90
2022-12-31T02:21:32.239Z,74.00
2022-12-31T02:23:58.872Z,74.20
2022-12-31T02:26:25.352Z,74.20
2022-12-31T02:28:51.818Z,74.40
2022-12-31T02:31:18.332Z,74.60
2022-12-31T02:33:44.858Z,74.70
2022-12-31T02:36:11.343Z,74.70
2022-12-31T02:38:37.828Z,74.70
2022-12-31T02:41:04.319Z,74.80
2022-12-31T02:43:30.790Z,74.80
2022-12-31T02:45:57.269Z,74.70
2022-12-31T02:48:23.753Z,74.90
2022-12-31T02:50:50.271Z,75.20
2022-12-31T02:53:16.751Z,75.20
2022-12-31T02:55:43.268Z,75.10
2022-12-31T02:58:09.731Z,75.10
2022-12-31T03:00:36.366Z,75.20
2022-12-31T03:03:02.911Z,75.10
2022-12-31T03:05:29.412Z,75.10
2022-12-31T03:07:55.906Z,75.20
2022-12-31T03:10:22.382Z,75.20
2022-12-31T03:12:48.991Z,75.30
2022-12-31T03:15:15.513Z,75.30
2022-12-31T03:17:41.981Z,75.10
2022-12-31T03:20:14.596Z,75.10
2022-12-31T03:22:41.052Z,75.30
2022-12-31T03:25:07.544Z,75.30
2022-12-31T03:27:34.041Z,75.30
2022-12-31T03:30:00.562Z,75.40
2022-12-31T03:32:27.044Z,75.50
2022-12-31T03:34:53.528Z,75.40
2022-12-31T03:37:19.999Z,75.60
2022-12-31T03:39:46.481Z,75.60
2022-12-31T03:42:12.983Z,75.60
2022-12-31T03:44:39.469Z,75.50
2022-12-31T03:47:05.950Z,75.40
2022-12-31T03:49:32.441Z,75.50
2022-12-31T03:51:58.914Z,75.50
2022-12-31T03:54:25.384Z,75.50
2022-12-31T03:56:58.247Z,75.50
2022-12-31T03:59:26.429Z,75.60
2022-12-31T04:01:53.013Z,75.50
2022-12-31T04:04:19.505Z,75.60
2022-12-31T04:06:45.992Z,75.70
2022-12-31T04:09:12.462Z,75.80
2022-12-31T04:11:38.942Z,75.70
2022-12-31T04:14:05.441Z,75.70
2022-12-31T04:16:31.956Z,75.70
2022-12-31T04:18:58.521Z,76.00
2022-12-31T04:21:27.741Z,75.70
2022-12-31T04:23:56.599Z,76.00
2022-12-31T04:26:23.067Z,76.00
2022-12-31T04:28:49.556Z,75.90
2022-12-31T04:31:16.055Z,76.00
2022-12-31T04:33:42.527Z,76.00
2022-12-31T04:36:08.997Z,76.00
2022-12-31T04:38:35.488Z,75.90
2022-12-31T04:41:01.967Z,76.10
2022-12-31T04:43:28.427Z,76.00
2022-12-31T04:45:54.945Z,76.00
2022-12-31T04:48:21.460Z,76.00
2022-12-31T04:50:47.921Z,76.00
2022-12-31T04:53:14.416Z,76.20
2022-12-31T04:55:40.899Z,76.20
2022-12-31T04:58:07.397Z,76.10
2022-12-31T05:00:33.865Z,76.00
2022-12-31T05:03:00.374Z,76.10
2022-12-31T05:05:26.863Z,76.10
2022-12-31T05:07:53.337Z,76.30
2022-12-31T05:10:19.806Z,76.10
2022-12-31T05:12:46.271Z,76.40
2022-12-31T05:15:12.759Z,76.20
2022-12-31T05:17:39.225Z,76.30
2022-12-31T05:20:05.703Z,76.40
2022-12-31T05:22:32.186Z,76.50
2022-12-31T05:24:58.671Z,76.40
2022-12-31T05:27:25.133Z,76.40
2022-12-31T05:29:51.612Z,76.50
2022-12-31T05:32:18.102Z,76.80
2022-12-31T05:34:44.565Z,76.50
2022-12-31T05:37:11.040Z,76.40
2022-12-31T05:39:37.498Z,76.40
2022-12-31T05:42:03.963Z,76.50
2022-12-31T05:44:30.462Z,76.70
2022-12-31T05:46:56.951Z,76.70
2022-12-31T05:49:23.415Z,76.50
2022-12-31T05:51:49.898Z,76.70
2022-12-31T05:54:16.369Z,76.80
2022-12-31T05:56:43.025Z,76.70
2022-12-31T05:59:09.591Z,76.90
2022-12-31T06:01:36.108Z,76.80
2022-12-31T06:04:02.702Z,76.80
2022-12-31T06:06:29.249Z,76.90
2022-12-31T06:08:55.739Z,76.80
2022-12-31T06:11:22.218Z,77.00
2022-12-31T06:13:48.696Z,77.10
2022-12-31T06:16:15.229Z,76.90
2022-12-31T06:18:41.700Z,76.90
2022-12-31T06:21:08.196Z,77.00
2022-12-31T06:23:34.694Z,76.90
2022-12-31T06:26:01.456Z,76.90
2022-12-31T06:28:27.956Z,77.10
2022-12-31T06:30:54.465Z,76.90
2022-12-31T06:33:26.641Z,76.90
2022-12-31T06:35:53.142Z,76.90
2022-12-31T06:38:19.603Z,76.70
2022-12-31T06:40:46.094Z,76.90
2022-12-31T06:43:12.567Z,76.90
2022-12-31T06:45:39.048Z,77.10
2022-12-31T06:48:05.520Z,76.80
2022-12-31T06:50:32.021Z,76.70
2022-12-31T06:52:58.495Z,76.90
2022-12-31T06:55:24.955Z,77.00
2022-12-31T06:57:51.418Z,76.90
2022-12-31T07:00:17.898Z,77.10
2022-12-31T07:02:44.420Z,76.80
2022-12-31T07:05:10.970Z,77.10
2022-12-31T07:07:37.455Z,77.20
2022-12-31T07:10:03.936Z,77.20
2022-12-31T07:12:30.408Z,77.00
2022-12-31T07:14:56.883Z,77.00
2022-12-31T07:17:23.348Z,76.90
2022-12-31T07:19:55.485Z,77.00
2022-12-31T07:22:23.903Z,77.00
2022-12-31T07:24:50.365Z,77.00
2022-12-31T07:27:20.626Z,76.80
2022-12-31T07:29:47.121Z,76.90
2022-12-31T07:32:13.631Z,76.90
2022-12-31T07:34:40.127Z,77.00
2022-12-31T07:37:06.612Z,77.00
2022-12-31T07:39:33.099Z,76.80
2022-12-31T07:41:59.600Z,76.90
2022-12-31T07:44:26.085Z,76.90
2022-12-31T07:46:52.608Z,77.10
2022-12-31T07:49:19.088Z,77.10
2022-12-31T07:51:45.577Z,77.00
2022-12-31T07:54:14.217Z,77.10
2022-12-31T07:56:40.965Z,77.10
2022-12-31T07:59:07.470Z,77.10
2022-12-31T08:01:34.191Z,77.20
2022-12-31T08:04:00.840Z,77.30
2022-12-31T08:06:27.339Z,77.20
2022-12-31T08:08:53.812Z,77.30
2022-12-31T08:11:20.303Z,77.20
2022-12-31T08:13:46.796Z,77.30
2022-12-31T08:16:13.340Z,77.40
2022-12-31T08:18:39.852Z,77.30
2022-12-31T08:21:06.326Z,77.10
2022-12-31T08:23:32.794Z,77.40
2022-12-31T08:25:59.270Z,77.30
2022-12-31T08:28:25.768Z,77.30
2022-12-31T08:30:52.250Z,77.30
2022-12-31T08:33:18.753Z,77.50
2022-12-31T08:35:45.217Z,77.60
2022-12-31T08:38:11.717Z,77.50
2022-12-31T08:40:38.220Z,77.40
2022-12-31T08:43:04.705Z,77.30
2022-12-31T08:45:31.230Z,77.30
2022-12-31T08:48:00.121Z,77.50
2022-12-31T08:50:26.866Z,77.70
2022-12-31T08:52:53.375Z,77.50
2022-12-31T08:55:19.854Z,77.60
2022-12-31T08:57:46.337Z,77.50
2022-12-31T09:00:12.812Z,77.40
2022-12-31T09:02:43.229Z,77.30
2022-12-31T09:05:12.745Z,77.30
2022-12-31T09:07:44.880Z,77.30
2022-12-31T09:10:11.361Z,77.50
2022-12-31T09:12:37.859Z,77.50
2022-12-31T09:15:04.330Z,77.50
2022-12-31T09:17:30.805Z,77.40
2022-12-31T09:19:57.284Z,77.60
2022-12-31T09:22:23.770Z,77.60
2022-12-31T09:24:50.244Z,77.50
2022-12-31T09:27:18.281Z,77.60
2022-12-31T09:29:46.552Z,77.50
2022-12-31T09:32:13.033Z,77.50
2022-12-31T09:34:39.501Z,77.50
2022-12-31T09:37:05.963Z,77.60
2022-12-31T09:39:32.438Z,77.70
2022-12-31T09:41:58.923Z,77.80
2022-12-31T09:44:25.406Z,77.80
2022-12-31T09:46:51.858Z,77.70
2022-12-31T09:49:18.319Z,77.70
2022-12-31T09:51:44.783Z,77.80
2022-12-31T09:54:11.267Z,77.60
2022-12-31T09:56:37.729Z,77.60
2022-12-31T09:59:04.210Z,77.60
2022-12-31T10:01:30.846Z,77.60
2022-12-31T10:03:57.487Z,77.70
2022-12-31T10:06:23.960Z,77.70
2022-12-31T10:08:50.439Z,77.40
2022-12-31T10:11:16.922Z,77.90
2022-12-31T10:13:43.435Z,77.60
2022-12-31T10:16:09.912Z,77.70
2022-12-31T10:18:36.386Z,77.80
2022-12-31T10:21:02.927Z,77.60
2022-12-31T10:23:29.407Z,77.90
2022-12-31T10:25:55.911Z,77.90
2022-12-31T10:28:26.939Z,77.70
2022-12-31T10:30:53.448Z,77.80
2022-12-31T10:33:19.978Z,77.80
2022-12-31T10:35:46.468Z,77.90
2022-12-31T10:38:12.932Z,78.00
2022-12-31T10:40:39.407Z,77.90
2022-12-31T10:43:05.887Z,77.70
2022-12-31T10:45:32.361Z,77.90
2022-12-31T10:47:58.824Z,77.90
2022-12-31T10:50:25.287Z,77.90
2022-12-31T10:52:51.768Z,77.90
2022-12-31T10:55:18.244Z,77.80
2022-12-31T10:57:44.718Z,77.90
2022-12-31T11:00:11.211Z,77.80
2022-12-31T11:02:37.810Z,77.90
2022-12-31T11:05:04.417Z,77.90
2022-12-31T11:07:30.920Z,78.00
2022-12-31T11:09:57.409Z,78.00
2022-12-31T11:12:23.898Z,77.90
2022-12-31T11:14:50.370Z,78.00
2022-12-31T11:17:16.853Z,77.80
2022-12-31T11:19:43.333Z,78.00
2022-12-31T11:22:09.824Z,78.00
2022-12-31T11:24:38.774Z,77.90
2022-12-31T11:27:05.305Z,77.90
2022-12-31T11:29:31.780Z,78.00
2022-12-31T11:31:58.275Z,78.00
2022-12-31T11:34:24.767Z,78.00
2022-12-31T11:36:51.247Z,78.00
2022-12-31T11:39:17.712Z,78.00
2022-12-31T11:41:44.189Z,78.10
2022-12-31T11:44:10.646Z,78.10
2022-12-31T11:46:37.172Z,78.00
2022-12-31T11:49:03.654Z,78.20
2022-12-31T11:51:30.132Z,78.10
2022-12-31T11:53:56.618Z,78.00
2022-12-31T11:56:23.097Z,78.20
2022-12-31T11:58:49.647Z,78.00
2022-12-31T12:01:16.118Z,78.00
2022-12-31T12:03:42.674Z,78.20
2022-12-31T12:06:09.151Z,78.20
2022-12-31T12:08:35.636Z,78.10
2022-12-31T12:11:02.116Z,78.20
2022-12-31T12:13:28.599Z,78.20
2022-12-31T12:15:55.132Z,78.20
2022-12-31T12:18:21.638Z,78.20
2022-12-31T12:20:48.115Z,78.20
2022-12-31T12:23:14.600Z,78.20
2022-12-31T12:25:41.090Z,78.30
2022-12-31T12:28:07.553Z,78.30
2022-12-31T12:30:38.867Z,78.20
2022-12-31T12:33:05.351Z,78.40
2022-12-31T12:35:31.853Z,78.10
2022-12-31T12:37:58.317Z,78.40
2022-12-31T12:40:31.470Z,78.20
2022-12-31T12:42:59.757Z,78.30
2022-12-31T12:45:26.233Z,78.20
2022-12-31T12:47:52.690Z,78.30
2022-12-31T12:50:19.162Z,78.30
2022-12-31T12:52:45.643Z,78.20
2022-12-31T12:55:12.136Z,78.30
2022-12-31T12:57:38.658Z,78.30
2022-12-31T13:00:05.124Z,78.30
2022-12-31T13:02:31.651Z,78.20
2022-12-31T13:04:58.196Z,78.30
2022-12-31T13:07:24.695Z,78.20
2022-12-31T13:09:51.188Z,78.20
2022-12-31T13:12:17.676Z,78.20
2022-12-31T13:14:44.161Z,78.20
2022-12-31T13:17:10.655Z,78.30
2022-12-31T13:19:37.154Z,78.30
2022-12-31T13:22:03.643Z,78.20
2022-12-31T13:24:30.168Z,78.30
2022-12-31T13:26:56.640Z,78.20
2022-12-31T13:29:23.130Z,78.30
2022-12-31T13:31:50.948Z,78.30
2022-12-31T13:34:17.454Z,78.20
2022-12-31T13:36:43.930Z,78.30
2022-12-31T13:39:10.405Z,78.50
2022-12-31T13:41:38.940Z,78.30
2022-12-31T13:44:05.426Z,78.30
2022-12-31T13:46:31.912Z,78.30
2022-12-31T13:48:58.387Z,78.40
2022-12-31T13:51:24.841Z,78.40
2022-12-31T13:53:51.315Z,78.30
2022-12-31T13:56:17.808Z,78.50
2022-12-31T13:58:44.295Z,78.50
2022-12-31T14:01:10.924Z,78.50
2022-12-31T14:03:37.459Z,78.50
2022-12-31T14:06:03.966Z,78.50
2022-12-31T14:08:30.424Z,78.60
2022-12-31T14:10:56.928Z,78.70
2022-12-31T14:13:23.878Z,78.50
2022-12-31T14:15:52.170Z,78.60
2022-12-31T14:18:18.656Z,78.60
2022-12-31T14:20:45.153Z,78.60
2022-12-31T14:23:11.615Z,78.60
2022-12-31T14:25:38.126Z,78.70
2022-12-31T14:28:04.587Z,78.80
2022-12-31T14:30:31.084Z,78.70
2022-12-31T14:32:57.564Z,78.70
2022-12-31T14:35:24.090Z,78.60
2022-12-31T14:37:50.590Z,78.70
2022-12-31T14:40:17.068Z,78.70
2022-12-31T14:42:43.543Z,78.70
2022-12-31T14:45:10.001Z,78.70
2022-12-31T14:47:36.491Z,78.50
2022-12-31T14:50:03.046Z,78.50
2022-12-31T14:52:29.610Z,78.70
2022-12-31T14:54:56.074Z,78.60
2022-12-31T14:57:22.546Z,78.60
2022-12-31T14:59:49.026Z,78.70
2022-12-31T15:02:15.619Z,78.70
2022-12-31T15:04:42.144Z,78.70
2022-12-31T15:07:08.638Z,78.70
2022-12-31T15:09:35.110Z,78.80
2022-12-31T15:12:01.597Z,78.70
2022-12-31T15:14:37.403Z,78.70
2022-12-31T15:17:04.508Z,78.80
2022-12-31T15:19:31.007Z,78.80
2022-12-31T15:21:57.498Z,78.70
2022-12-31T15:24:23.977Z,78.90
2022-12-31T15:26:50.447Z,78.90
2022-12-31T15:29:16.929Z,79.00
2022-12-31T15:31:43.428Z,78.80
2022-12-31T15:34:09.921Z,78.80
2022-12-31T15:36:36.414Z,78.70
2022-12-31T15:39:02.866Z,78.90
2022-12-31T15:41:29.357Z,78.80
2022-12-31T15:43:55.837Z,78.80
2022-12-31T15:46:22.486Z,78.90
2022-12-31T15:48:52.288Z,78.90
2022-12-31T15:51:19.444Z,78.90
2022-12-31T15:53:45.918Z,78.70
2022-12-31T15:56:12.395Z,78.70
2022-12-31T15:58:38.887Z,78.80
2022-12-31T16:01:05.386Z,78.80
2022-12-31T16:03:31.934Z,78.90
2022-12-31T16:05:58.431Z,78.90
2022-12-31T16:08:24.899Z,78.80
2022-12-31T16:10:51.376Z,78.70
2022-12-31T16:13:17.853Z,78.70
2022-12-31T16:15:45.036Z,78.90
2022-12-31T16:18:13.735Z,79.00
2022-12-31T16:20:43.670Z,78.80
2022-12-31T16:23:10.165Z,78.90
2022-12-31T16:25:36.631Z,78.80
2022-12-31T16:28:03.126Z,78.80
2022-12-31T16:30:29.598Z,79.00
2022-12-31T16:32:56.090Z,78.80
2022-12-31T16:35:23.893Z,78.90
2022-12-31T16:37:50.571Z,78.90
2022-12-31T16:40:17.060Z,78.80
2022-12-31T16:42:44.618Z,78.90
2022-12-31T16:45:15.238Z,79.00
2022-12-31T16:47:41.740Z,79.00
2022-12-31T16:50:08.216Z,78.90
2022-12-31T16:52:34.708Z,79.00
2022-12-31T16:55:01.197Z,78.90
2022-12-31T16:57:27.687Z,79.00
2022-12-31T16:59:54.260Z,78.90
2022-12-31T17:02:20.887Z,78.90
2022-12-31T17:04:55.136Z,79.00
2022-12-31T17:07:22.415Z,78.80
2022-12-31T17:09:51.104Z,78.80
2022-12-31T17:12:17.591Z,78.90
2022-12-31T17:14:44.074Z,78.90
2022-12-31T17:17:10.558Z,78.90
2022-12-31T17:19:37.050Z,78.90
2022-12-31T17:22:03.525Z,79.00
2022-12-31T17:24:30.005Z,78.90
2022-12-31T17:26:56.481Z,78.90
2022-12-31T17:29:26.413Z,78.90
2022-12-31T17:31:57.191Z,78.90
2022-12-31T17:34:23.671Z,78.90
2022-12-31T17:36:50.147Z,78.80
2022-12-31T17:39:16.665Z,78.80
2022-12-31T17:41:43.122Z,78.90
2022-12-31T17:44:09.603Z,78.90
2022-12-31T17:46:36.175Z,78.90
2022-12-31T17:49:02.698Z,79.20
2022-12-31T17:51:29.182Z,78.80
2022-12-31T17:53:55.714Z,79.00
2022-12-31T17:56:22.182Z,79.10
2022-12-31T17:58:48.689Z,79.20
2022-12-31T18:01:15.237Z,79.00
2022-12-31T18:03:41.867Z,78.90
2022-12-31T18:06:13.041Z,78.90
2022-12-31T18:08:42.952Z,78.80
2022-12-31T18:11:09.423Z,78.80
2022-12-31T18:13:35.901Z,79.10
2022-12-31T18:16:02.451Z,78.90
2022-12-31T18:18:28.967Z,78.90
2022-12-31T18:20:55.451Z,79.10
2022-12-31T18:23:21.941Z,79.00
2022-12-31T18:25:48.424Z,79.00
2022-12-31T18:28:14.887Z,79.00
2022-12-31T18:30:41.369Z,79.00
2022-12-31T18:33:07.961Z,79.00
2022-12-31T18:36:06.933Z,79.70
2022-12-31T18:38:20.868Z,79.00
2022-12-31T18:40:47.332Z,79.00
2022-12-31T18:43:13.816Z,79.00
2022-12-31T18:45:40.325Z,79.00
2022-12-31T18:48:06.802Z,79.00
2022-12-31T18:50:33.285Z,79.00
2022-12-31T18:53:00.849Z,79.00
2022-12-31T18:55:27.322Z,79.10
2022-12-31T18:57:53.805Z,78.90
2022-12-31T19:00:20.296Z,79.30
2022-12-31T19:02:51.277Z,79.20
2022-12-31T19:05:17.810Z,79.20
2022-12-31T19:07:44.273Z,79.20
2022-12-31T19:10:10.771Z,79.10
2022-12-31T19:12:37.250Z,79.10
2022-12-31T19:15:03.714Z,79.10
2022-12-31T19:17:30.192Z,79.10
2022-12-31T19:19:56.672Z,78.90
2022-12-31T19:22:23.170Z,79.10
2022-12-31T19:24:49.663Z,79.00
2022-12-31T19:27:16.156Z,79.00
2022-12-31T19:29:42.670Z,79.10
2022-12-31T19:32:09.219Z,79.10
2022-12-31T19:34:35.715Z,79.20
2022-12-31T19:37:02.214Z,79.10
2022-12-31T19:39:28.695Z,79.00
2022-12-31T19:41:59.207Z,78.80
2022-12-31T19:44:26.205Z,79.10
2022-12-31T19:46:52.667Z,79.10
2022-12-31T19:49:19.142Z,79.00
2022-12-31T19:51:45.617Z,78.90
2022-12-31T19:54:12.094Z,78.90
2022-12-31T19:56:38.546Z,78.90
2022-12-31T19:59:05.024Z,79.10
2022-12-31T20:01:31.569Z,79.10
2022-12-31T20:03:58.095Z,79.10
2022-12-31T20:06:24.578Z,79.00
2022-12-31T20:08:51.146Z,78.90
2022-12-31T20:11:17.652Z,78.90
2022-12-31T20:13:44.123Z,79.20
2022-12-31T20:16:10.749Z,79.00
2022-12-31T20:18:37.236Z,78.90
2022-12-31T20:21:03.726Z,79.10
2022-12-31T20:23:30.197Z,78.90
2022-12-31T20:25:56.689Z,79.20
2022-12-31T20:28:23.161Z,78.90
2022-12-31T20:30:49.779Z,79.00
2022-12-31T20:33:21.493Z,78.80
2022-12-31T20:35:47.990Z,78.60
2022-12-31T20:38:14.462Z,78.90
2022-12-31T20:40:46.518Z,78.70
2022-12-31T20:43:13.507Z,78.70
2022-12-31T20:45:40.139Z,78.70
2022-12-31T20:48:06.703Z,78.80
2022-12-31T20:50:33.251Z,78.60
2022-12-31T20:52:59.728Z,78.60
2022-12-31T20:55:26.225Z,78.70
2022-12-31T20:57:52.699Z,78.80
2022-12-31T21:00:19.164Z,78.80
2022-12-31T21:02:51.527Z,78.60
2022-12-31T21:05:23.205Z,78.50
2022-12-31T21:07:49.802Z,78.90
2022-12-31T21:10:16.280Z,78.80
2022-12-31T21:12:42.769Z,78.80
2022-12-31T21:15:09.239Z,78.70
2022-12-31T21:17:35.742Z,78.90
2022-12-31T21:20:02.221Z,78.90
2022-12-31T21:22:28.688Z,78.80
2022-12-31T21:24:55.164Z,78.80
2022-12-31T21:27:21.632Z,78.60
2022-12-31T21:30:17.235Z,78.80
2022-12-31T21:32:34.566Z,78.50
2022-12-31T21:35:40.313Z,78.50
2022-12-31T21:37:57.941Z,78.60
2022-12-31T21:40:26.786Z,78.30
2022-12-31T21:42:53.266Z,78.50
2022-12-31T21:45:19.745Z,78.40
2022-12-31T21:47:47.837Z,78.40
2022-12-31T21:50:14.476Z,78.40
2022-12-31T21:52:40.958Z,78.40
2022-12-31T21:55:07.421Z,78.30
2022-12-31T21:57:51.882Z,78.30
2022-12-31T22:00:43.975Z,78.40
2022-12-31T22:03:06.912Z,78.50
2022-12-31T22:05:33.435Z,78.20
2022-12-31T22:07:59.929Z,78.20
2022-12-31T22:10:26.436Z,78.50
2022-12-31T22:12:53.024Z,78.30
2022-12-31T22:15:19.518Z,78.30
2022-12-31T22:17:46.013Z,78.40
2022-12-31T22:20:28.737Z,78.40
2022-12-31T22:22:55.529Z,78.30
2022-12-31T22:25:21.992Z,78.00
2022-12-31T22:28:11.562Z,78.30
2022-12-31T22:30:34.912Z,78.10
2022-12-31T22:33:01.423Z,78.30
2022-12-31T22:35:27.919Z,78.20
2022-12-31T22:37:57.893Z,78.30
2022-12-31T22:40:25.585Z,78.40
2022-12-31T22:42:52.085Z,78.30
2022-12-31T22:45:18.560Z,78.00
2022-12-31T22:47:45.037Z,78.00
2022-12-31T22:50:11.522Z,78.10
2022-12-31T22:52:38.049Z,77.90
2022-12-31T22:55:04.527Z,78.00
2022-12-31T22:57:31.035Z,77.80
2022-12-31T22:59:57.490Z,77.80
2022-12-31T23:02:24.000Z,77.90
2022-12-31T23:04:50.472Z,77.90
2022-12-31T23:07:16.969Z,77.80
2022-12-31T23:09:43.449Z,78.00
2022-12-31T23:12:15.427Z,77.80
2022-12-31T23:14:41.906Z,77.60
2022-12-31T23:17:31.121Z,77.60
2022-12-31T23:19:54.800Z,77.70
2022-12-31T23:22:21.268Z,77.70
2022-12-31T23:24:47.736Z,77.60
2022-12-31T23:27:14.250Z,77.60
2022-12-31T23:29:46.782Z,77.50
2022-12-31T23:32:14.119Z,77.70
2022-12-31T23:34:40.595Z,77.70
2022-12-31T23:37:09.358Z,77.70
2022-12-31T23:39:35.881Z,77.70
2022-12-31T23:42:02.355Z,77.70
2022-12-31T23:44:28.841Z,77.60
2022-12-31T23:46:55.386Z,77.60
2022-12-31T23:49:21.929Z,77.50
2022-12-31T23:51:48.414Z,77.60
2022-12-31T23:54:14.926Z,77.60
2022-12-31T23:56:41.432Z,77.40
2022-12-31T23:59:08.044Z,77.50
